sensor_id;sensor_type;location;lat;lon;timestamp;temperature;humidity
31765;DHT22;18338;53.240;8.798;2022-12-29T00:01:57;10.00;99.90
31765;DHT22;18338;53.240;8.798;2022-12-29T00:04:24;10.10;99.90
31765;DHT22;18338;53.240;8.798;2022-12-29T00:06:52;10.20;99.90
31765;DHT22;18338;53.240;8.798;2022-12-29T00:09:20;10.20;99.90
31765;DHT22;18338;53.240;8.798;2022-12-29T00:11:46;10.30;99.90
31765;DHT22;18338;53.240;8.798;2022-12-29T00:14:18;10.20;99.90
31765;DHT22;18338;53.240;8.798;2022-12-29T00:17:03;10.30;99.90
31765;DHT22;18338;53.240;8.798;2022-12-29T00:19:30;10.40;99.90
31765;DHT22;18338;53.240;8.798;2022-12-29T00:22:15;10.30;99.90
31765;DHT22;18338;53.240;8.798;2022-12-29T00:25:01;10.30;99.90
31765;DHT22;18338;53.240;8.798;2022-12-29T00:27:28;10.40;99.90
31765;DHT22;18338;53.240;8.798;2022-12-29T00:30:22;10.40;99.90
31765;DHT22;18338;53.240;8.798;2022-12-29T00:33:14;10.40;99.90
31765;DHT22;18338;53.240;8.798;2022-12-29T00:36:23;10.40;99.90
31765;DHT22;18338;53.240;8.798;2022-12-29T00:38:58;10.40;99.90
31765;DHT22;18338;53.240;8.798;2022-12-29T00:41:43;10.40;99.90
31765;DHT22;18338;53.240;8.798;2022-12-29T00:44:29;10.30;99.90
31765;DHT22;18338;53.240;8.798;2022-12-29T00:46:55;10.30;99.90
31765;DHT22;18338;53.240;8.798;2022-12-29T00:49:22;10.20;99.90
31765;DHT22;18338;53.240;8.798;2022-12-29T00:52:05;10.20;99.90
31765;DHT22;18338;53.240;8.798;2022-12-29T00:54:35;10.20;99.90
31765;DHT22;18338;53.240;8.798;2022-12-29T00:57:02;10.20;99.90
31765;DHT22;18338;53.240;8.798;2022-12-29T00:59:29;10.30;99.90
31765;DHT22;18338;53.240;8.798;2022-12-29T01:01:57;10.20;99.90
31765;DHT22;18338;53.240;8.798;2022-12-29T01:04:25;10.20;99.90
31765;DHT22;18338;53.240;8.798;2022-12-29T01:06:53;10.30;99.90
31765;DHT22;18338;53.240;8.798;2022-12-29T01:09:20;10.30;99.90
31765;DHT22;18338;53.240;8.798;2022-12-29T01:12:07;10.30;99.90
31765;DHT22;18338;53.240;8.798;2022-12-29T01:14:35;10.30;99.90
31765;DHT22;18338;53.240;8.798;2022-12-29T01:17:02;10.30;99.90
31765;DHT22;18338;53.240;8.798;2022-12-29T01:19:29;10.30;99.90
31765;DHT22;18338;53.240;8.798;2022-12-29T01:21:56;10.30;99.90
31765;DHT22;18338;53.240;8.798;2022-12-29T01:24:23;10.30;99.90
31765;DHT22;18338;53.240;8.798;2022-12-29T01:26:50;10.30;99.90
31765;DHT22;18338;53.240;8.798;2022-12-29T01:29:17;10.30;99.90
31765;DHT22;18338;53.240;8.798;2022-12-29T01:31:44;10.30;99.90
31765;DHT22;18338;53.240;8.798;2022-12-29T01:34:11;10.30;99.90
31765;DHT22;18338;53.240;8.798;2022-12-29T01:36:38;10.30;99.90
31765;DHT22;18338;53.240;8.798;2022-12-29T01:39:04;10.40;99.90
31765;DHT22;18338;53.240;8.798;2022-12-29T01:41:32;10.40;99.90
31765;DHT22;18338;53.240;8.798;2022-12-29T01:44:00;10.40;99.90
31765;DHT22;18338;53.240;8.798;2022-12-29T01:46:31;10.40;99.90
31765;DHT22;18338;53.240;8.798;2022-12-29T01:51:47;10.50;99.90
31765;DHT22;18338;53.240;8.798;2022-12-29T01:54:19;10.50;99.90
31765;DHT22;18338;53.240;8.798;2022-12-29T01:56:47;10.50;99.90
31765;DHT22;18338;53.240;8.798;2022-12-29T01:59:21;10.50;99.90
31765;DHT22;18338;53.240;8.798;2022-12-29T02:01:50;10.50;99.90
31765;DHT22;18338;53.240;8.798;2022-12-29T02:04:17;10.50;99.90
31765;DHT22;18338;53.240;8.798;2022-12-29T02:06:51;10.50;99.90
31765;DHT22;18338;53.240;8.798;2022-12-29T02:09:19;10.60;99.90
31765;DHT22;18338;53.240;8.798;2022-12-29T02:11:46;10.50;99.90
31765;DHT22;18338;53.240;8.798;2022-12-29T02:14:14;10.60;99.90
31765;DHT22;18338;53.240;8.798;2022-12-29T02:29:05;10.70;99.90
31765;DHT22;18338;53.240;8.798;2022-12-29T02:37:08;10.70;99.90
31765;DHT22;18338;53.240;8.798;2022-12-29T02:39:43;10.70;99.90
31765;DHT22;18338;53.240;8.798;2022-12-29T02:42:36;10.70;99.90
31765;DHT22;18338;53.240;8.798;2022-12-29T02:45:19;10.70;99.90
31765;DHT22;18338;53.240;8.798;2022-12-29T02:48:00;10.80;99.90
31765;DHT22;18338;53.240;8.798;2022-12-29T02:50:37;10.90;99.90
31765;DHT22;18338;53.240;8.798;2022-12-29T02:53:09;10.90;99.90
31765;DHT22;18338;53.240;8.798;2022-12-29T02:55:37;10.90;99.90
31765;DHT22;18338;53.240;8.798;2022-12-29T02:58:19;10.90;99.90
31765;DHT22;18338;53.240;8.798;2022-12-29T03:01:17;11.00;99.90
31765;DHT22;18338;53.240;8.798;2022-12-29T03:04:14;11.00;99.90
31765;DHT22;18338;53.240;8.798;2022-12-29T03:09:43;11.00;99.90
31765;DHT22;18338;53.240;8.798;2022-12-29T03:15:27;11.00;99.90
31765;DHT22;18338;53.240;8.798;2022-12-29T03:18:23;11.00;99.90
31765;DHT22;18338;53.240;8.798;2022-12-29T03:20:59;11.00;99.90
31765;DHT22;18338;53.240;8.798;2022-12-29T03:23:27;10.90;99.90
31765;DHT22;18338;53.240;8.798;2022-12-29T03:25:57;10.90;99.90
31765;DHT22;18338;53.240;8.798;2022-12-29T03:28:33;10.90;99.90
31765;DHT22;18338;53.240;8.798;2022-12-29T03:31:03;10.90;99.90
31765;DHT22;18338;53.240;8.798;2022-12-29T03:33:31;11.00;99.90
31765;DHT22;18338;53.240;8.798;2022-12-29T03:36:01;11.00;99.90
31765;DHT22;18338;53.240;8.798;2022-12-29T03:38:44;11.00;99.90
31765;DHT22;18338;53.240;8.798;2022-12-29T03:41:17;11.00;99.90
31765;DHT22;18338;53.240;8.798;2022-12-29T03:43:45;11.00;99.90
31765;DHT22;18338;53.240;8.798;2022-12-29T03:46:12;11.00;99.90
31765;DHT22;18338;53.240;8.798;2022-12-29T03:48:39;11.10;99.90
31765;DHT22;18338;53.240;8.798;2022-12-29T03:51:06;11.10;99.90
31765;DHT22;18338;53.240;8.798;2022-12-29T03:53:33;11.20;99.90
31765;DHT22;18338;53.240;8.798;2022-12-29T03:55:59;11.20;99.90
31765;DHT22;18338;53.240;8.798;2022-12-29T03:58:26;11.20;99.90
31765;DHT22;18338;53.240;8.798;2022-12-29T04:00:52;11.00;99.90
31765;DHT22;18338;53.240;8.798;2022-12-29T04:03:19;11.00;99.90
31765;DHT22;18338;53.240;8.798;2022-12-29T04:05:46;10.90;99.90
31765;DHT22;18338;53.240;8.798;2022-12-29T04:08:13;10.90;99.90
31765;DHT22;18338;53.240;8.798;2022-12-29T04:10:40;10.80;99.90
31765;DHT22;18338;53.240;8.798;2022-12-29T04:13:06;10.80;99.90
31765;DHT22;18338;53.240;8.798;2022-12-29T04:15:33;10.80;99.90
31765;DHT22;18338;53.240;8.798;2022-12-29T04:18:01;10.80;99.90
31765;DHT22;18338;53.240;8.798;2022-12-29T04:20:27;10.80;99.90
31765;DHT22;18338;53.240;8.798;2022-12-29T04:23:12;10.80;99.90
31765;DHT22;18338;53.240;8.798;2022-12-29T04:25:39;10.80;99.90
31765;DHT22;18338;53.240;8.798;2022-12-29T04:28:06;10.80;99.90
31765;DHT22;18338;53.240;8.798;2022-12-29T04:30:34;10.80;99.90
31765;DHT22;18338;53.240;8.798;2022-12-29T04:33:01;10.80;99.90
31765;DHT22;18338;53.240;8.798;2022-12-29T04:35:27;10.90;99.90
31765;DHT22;18338;53.240;8.798;2022-12-29T04:37:54;10.90;99.90
31765;DHT22;18338;53.240;8.798;2022-12-29T04:40:21;11.00;99.90
31765;DHT22;18338;53.240;8.798;2022-12-29T04:42:50;10.90;99.90
31765;DHT22;18338;53.240;8.798;2022-12-29T04:45:17;10.90;99.90
31765;DHT22;18338;53.240;8.798;2022-12-29T04:47:44;11.00;99.90
31765;DHT22;18338;53.240;8.798;2022-12-29T04:50:11;11.00;99.90
31765;DHT22;18338;53.240;8.798;2022-12-29T04:52:38;11.00;99.90
31765;DHT22;18338;53.240;8.798;2022-12-29T04:55:05;11.00;99.90
31765;DHT22;18338;53.240;8.798;2022-12-29T04:57:32;11.10;99.90
31765;DHT22;18338;53.240;8.798;2022-12-29T04:59:59;11.10;99.90
31765;DHT22;18338;53.240;8.798;2022-12-29T05:02:26;11.10;99.90
31765;DHT22;18338;53.240;8.798;2022-12-29T05:04:53;11.20;99.90
31765;DHT22;18338;53.240;8.798;2022-12-29T05:07:20;11.10;99.90
31765;DHT22;18338;53.240;8.798;2022-12-29T05:09:47;11.20;99.90
31765;DHT22;18338;53.240;8.798;2022-12-29T05:12:20;11.10;99.90
31765;DHT22;18338;53.240;8.798;2022-12-29T05:15:00;11.10;99.90
31765;DHT22;18338;53.240;8.798;2022-12-29T05:17:29;11.10;99.90
31765;DHT22;18338;53.240;8.798;2022-12-29T05:19:56;11.00;99.90
31765;DHT22;18338;53.240;8.798;2022-12-29T05:22:23;11.00;99.90
31765;DHT22;18338;53.240;8.798;2022-12-29T05:24:49;11.10;99.90
31765;DHT22;18338;53.240;8.798;2022-12-29T05:27:16;11.10;99.90
31765;DHT22;18338;53.240;8.798;2022-12-29T05:29:43;11.10;99.90
31765;DHT22;18338;53.240;8.798;2022-12-29T05:32:10;11.10;99.90
31765;DHT22;18338;53.240;8.798;2022-12-29T05:34:36;11.20;99.90
31765;DHT22;18338;53.240;8.798;2022-12-29T05:37:04;11.20;99.90
31765;DHT22;18338;53.240;8.798;2022-12-29T05:39:30;11.20;99.90
31765;DHT22;18338;53.240;8.798;2022-12-29T05:41:57;11.20;99.90
31765;DHT22;18338;53.240;8.798;2022-12-29T05:44:24;11.30;99.90
31765;DHT22;18338;53.240;8.798;2022-12-29T05:46:51;11.30;99.90
31765;DHT22;18338;53.240;8.798;2022-12-29T05:49:17;11.30;99.90
31765;DHT22;18338;53.240;8.798;2022-12-29T05:51:44;11.10;99.90
31765;DHT22;18338;53.240;8.798;2022-12-29T05:54:11;11.00;99.90
31765;DHT22;18338;53.240;8.798;2022-12-29T05:56:38;11.00;99.90
31765;DHT22;18338;53.240;8.798;2022-12-29T05:59:04;11.00;99.90
31765;DHT22;18338;53.240;8.798;2022-12-29T06:01:31;11.00;99.90
31765;DHT22;18338;53.240;8.798;2022-12-29T06:04:00;11.10;99.90
31765;DHT22;18338;53.240;8.798;2022-12-29T06:06:27;11.10;99.90
31765;DHT22;18338;53.240;8.798;2022-12-29T06:08:54;11.10;99.90
31765;DHT22;18338;53.240;8.798;2022-12-29T06:11:20;11.00;99.90
31765;DHT22;18338;53.240;8.798;2022-12-29T06:13:47;11.00;99.90
31765;DHT22;18338;53.240;8.798;2022-12-29T06:16:14;11.00;99.90
31765;DHT22;18338;53.240;8.798;2022-12-29T06:18:41;11.10;99.90
31765;DHT22;18338;53.240;8.798;2022-12-29T06:21:08;11.00;99.90
31765;DHT22;18338;53.240;8.798;2022-12-29T06:23:35;11.00;99.90
31765;DHT22;18338;53.240;8.798;2022-12-29T06:26:02;11.00;99.90
31765;DHT22;18338;53.240;8.798;2022-12-29T06:28:29;11.00;99.90
31765;DHT22;18338;53.240;8.798;2022-12-29T06:30:56;10.90;99.90
31765;DHT22;18338;53.240;8.798;2022-12-29T06:33:23;10.90;99.90
31765;DHT22;18338;53.240;8.798;2022-12-29T06:35:50;10.90;99.90
31765;DHT22;18338;53.240;8.798;2022-12-29T06:38:17;10.90;99.90
31765;DHT22;18338;53.240;8.798;2022-12-29T06:40:44;10.90;99.90
31765;DHT22;18338;53.240;8.798;2022-12-29T06:43:11;10.90;99.90
31765;DHT22;18338;53.240;8.798;2022-12-29T06:45:39;10.90;99.90
31765;DHT22;18338;53.240;8.798;2022-12-29T06:48:07;10.80;99.90
31765;DHT22;18338;53.240;8.798;2022-12-29T06:50:34;10.80;99.90
31765;DHT22;18338;53.240;8.798;2022-12-29T06:53:00;10.90;99.90
31765;DHT22;18338;53.240;8.798;2022-12-29T06:55:27;10.90;99.90
31765;DHT22;18338;53.240;8.798;2022-12-29T06:57:58;10.90;99.90
31765;DHT22;18338;53.240;8.798;2022-12-29T07:00:25;10.90;99.90
31765;DHT22;18338;53.240;8.798;2022-12-29T07:02:51;10.90;99.90
31765;DHT22;18338;53.240;8.798;2022-12-29T07:05:18;10.90;99.90
31765;DHT22;18338;53.240;8.798;2022-12-29T07:07:46;10.90;99.90
31765;DHT22;18338;53.240;8.798;2022-12-29T07:10:12;10.80;99.90
31765;DHT22;18338;53.240;8.798;2022-12-29T07:12:39;10.80;99.90
31765;DHT22;18338;53.240;8.798;2022-12-29T07:15:06;10.80;99.90
31765;DHT22;18338;53.240;8.798;2022-12-29T07:17:33;10.70;99.90
31765;DHT22;18338;53.240;8.798;2022-12-29T07:19:59;10.80;99.90
31765;DHT22;18338;53.240;8.798;2022-12-29T07:22:26;10.70;99.90
31765;DHT22;18338;53.240;8.798;2022-12-29T07:24:52;10.70;99.90
31765;DHT22;18338;53.240;8.798;2022-12-29T07:27:19;10.80;99.90
31765;DHT22;18338;53.240;8.798;2022-12-29T07:29:46;10.70;99.90
31765;DHT22;18338;53.240;8.798;2022-12-29T07:32:12;10.60;99.90
31765;DHT22;18338;53.240;8.798;2022-12-29T07:34:39;10.60;99.90
31765;DHT22;18338;53.240;8.798;2022-12-29T07:37:06;10.60;99.90
31765;DHT22;18338;53.240;8.798;2022-12-29T07:39:33;10.60;99.90
31765;DHT22;18338;53.240;8.798;2022-12-29T07:41:59;10.70;99.90
31765;DHT22;18338;53.240;8.798;2022-12-29T07:44:30;10.60;99.90
31765;DHT22;18338;53.240;8.798;2022-12-29T07:46:57;10.80;99.90
31765;DHT22;18338;53.240;8.798;2022-12-29T07:49:24;10.90;99.90
31765;DHT22;18338;53.240;8.798;2022-12-29T07:51:52;10.90;99.90
31765;DHT22;18338;53.240;8.798;2022-12-29T07:54:19;10.90;99.90
31765;DHT22;18338;53.240;8.798;2022-12-29T07:56:46;11.00;99.90
31765;DHT22;18338;53.240;8.798;2022-12-29T07:59:12;11.00;99.90
31765;DHT22;18338;53.240;8.798;2022-12-29T08:01:39;11.00;99.90
31765;DHT22;18338;53.240;8.798;2022-12-29T08:04:06;11.00;99.90
31765;DHT22;18338;53.240;8.798;2022-12-29T08:06:33;11.00;99.90
31765;DHT22;18338;53.240;8.798;2022-12-29T08:09:00;10.90;99.90
31765;DHT22;18338;53.240;8.798;2022-12-29T08:11:38;10.90;99.90
31765;DHT22;18338;53.240;8.798;2022-12-29T08:14:05;10.80;99.90
31765;DHT22;18338;53.240;8.798;2022-12-29T08:16:31;10.80;99.90
31765;DHT22;18338;53.240;8.798;2022-12-29T08:18:59;10.70;99.90
31765;DHT22;18338;53.240;8.798;2022-12-29T08:21:27;10.70;99.90
31765;DHT22;18338;53.240;8.798;2022-12-29T08:23:54;10.70;99.90
31765;DHT22;18338;53.240;8.798;2022-12-29T08:26:21;10.70;99.90
31765;DHT22;18338;53.240;8.798;2022-12-29T08:28:54;10.80;99.90
31765;DHT22;18338;53.240;8.798;2022-12-29T08:31:23;10.90;99.90
31765;DHT22;18338;53.240;8.798;2022-12-29T08:33:51;11.00;99.90
31765;DHT22;18338;53.240;8.798;2022-12-29T08:36:17;11.00;99.90
31765;DHT22;18338;53.240;8.798;2022-12-29T08:38:44;10.80;99.90
31765;DHT22;18338;53.240;8.798;2022-12-29T08:41:11;10.90;99.90
31765;DHT22;18338;53.240;8.798;2022-12-29T08:43:38;11.00;99.90
31765;DHT22;18338;53.240;8.798;2022-12-29T08:46:07;11.20;99.90
31765;DHT22;18338;53.240;8.798;2022-12-29T08:48:43;11.30;99.90
31765;DHT22;18338;53.240;8.798;2022-12-29T08:51:10;11.30;99.90
31765;DHT22;18338;53.240;8.798;2022-12-29T08:53:37;11.30;99.90
31765;DHT22;18338;53.240;8.798;2022-12-29T08:56:03;11.20;99.90
31765;DHT22;18338;53.240;8.798;2022-12-29T08:58:31;11.20;99.90
31765;DHT22;18338;53.240;8.798;2022-12-29T09:00:58;11.10;99.90
31765;DHT22;18338;53.240;8.798;2022-12-29T09:03:26;11.10;99.90
31765;DHT22;18338;53.240;8.798;2022-12-29T09:06:13;11.20;99.90
31765;DHT22;18338;53.240;8.798;2022-12-29T09:08:40;11.20;99.90
31765;DHT22;18338;53.240;8.798;2022-12-29T09:11:17;11.20;99.90
31765;DHT22;18338;53.240;8.798;2022-12-29T09:13:44;11.30;99.90
31765;DHT22;18338;53.240;8.798;2022-12-29T09:16:10;11.20;99.90
31765;DHT22;18338;53.240;8.798;2022-12-29T09:18:37;11.10;99.90
31765;DHT22;18338;53.240;8.798;2022-12-29T09:21:05;11.10;99.90
31765;DHT22;18338;53.240;8.798;2022-12-29T09:23:33;11.10;99.90
31765;DHT22;18338;53.240;8.798;2022-12-29T09:26:00;11.10;99.90
31765;DHT22;18338;53.240;8.798;2022-12-29T09:28:26;11.10;99.90
31765;DHT22;18338;53.240;8.798;2022-12-29T09:30:56;11.50;99.90
31765;DHT22;18338;53.240;8.798;2022-12-29T09:33:23;11.80;99.90
31765;DHT22;18338;53.240;8.798;2022-12-29T09:35:52;11.50;99.90
31765;DHT22;18338;53.240;8.798;2022-12-29T09:38:19;11.50;99.90
31765;DHT22;18338;53.240;8.798;2022-12-29T09:40:52;11.50;99.90
31765;DHT22;18338;53.240;8.798;2022-12-29T09:43:29;11.40;99.90
31765;DHT22;18338;53.240;8.798;2022-12-29T09:46:27;11.40;99.90
31765;DHT22;18338;53.240;8.798;2022-12-29T09:51:31;11.50;99.90
31765;DHT22;18338;53.240;8.798;2022-12-29T09:54:10;11.40;99.90
31765;DHT22;18338;53.240;8.798;2022-12-29T09:56:40;11.40;99.90
31765;DHT22;18338;53.240;8.798;2022-12-29T09:59:12;11.40;99.90
31765;DHT22;18338;53.240;8.798;2022-12-29T10:01:57;11.40;99.90
31765;DHT22;18338;53.240;8.798;2022-12-29T10:04:27;11.40;99.90
31765;DHT22;18338;53.240;8.798;2022-12-29T10:07:04;11.50;99.90
31765;DHT22;18338;53.240;8.798;2022-12-29T10:10:25;11.50;99.90
31765;DHT22;18338;53.240;8.798;2022-12-29T10:13:28;11.40;99.90
31765;DHT22;18338;53.240;8.798;2022-12-29T10:16:18;11.50;99.90
31765;DHT22;18338;53.240;8.798;2022-12-29T10:21:59;11.60;99.90
31765;DHT22;18338;53.240;8.798;2022-12-29T10:24:29;11.50;99.90
31765;DHT22;18338;53.240;8.798;2022-12-29T10:26:58;11.40;99.90
31765;DHT22;18338;53.240;8.798;2022-12-29T10:29:33;11.40;99.90
31765;DHT22;18338;53.240;8.798;2022-12-29T10:32:06;11.30;99.90
31765;DHT22;18338;53.240;8.798;2022-12-29T10:34:37;11.40;99.90
31765;DHT22;18338;53.240;8.798;2022-12-29T10:40:33;11.50;99.90
31765;DHT22;18338;53.240;8.798;2022-12-29T10:43:30;11.50;99.90
31765;DHT22;18338;53.240;8.798;2022-12-29T10:46:02;11.30;99.90
31765;DHT22;18338;53.240;8.798;2022-12-29T10:48:32;11.30;99.90
31765;DHT22;18338;53.240;8.798;2022-12-29T10:51:01;11.40;99.90
31765;DHT22;18338;53.240;8.798;2022-12-29T10:53:43;11.50;99.90
31765;DHT22;18338;53.240;8.798;2022-12-29T10:56:25;11.40;99.90
31765;DHT22;18338;53.240;8.798;2022-12-29T10:58:56;11.30;99.90
31765;DHT22;18338;53.240;8.798;2022-12-29T11:01:28;11.00;99.90
31765;DHT22;18338;53.240;8.798;2022-12-29T11:04:07;11.00;99.90
31765;DHT22;18338;53.240;8.798;2022-12-29T11:06:39;11.00;99.90
31765;DHT22;18338;53.240;8.798;2022-12-29T11:09:18;11.00;99.90
31765;DHT22;18338;53.240;8.798;2022-12-29T11:11:46;10.80;99.90
31765;DHT22;18338;53.240;8.798;2022-12-29T11:14:18;10.60;99.90
31765;DHT22;18338;53.240;8.798;2022-12-29T11:17:00;10.40;99.90
31765;DHT22;18338;53.240;8.798;2022-12-29T11:19:30;10.30;99.90
31765;DHT22;18338;53.240;8.798;2022-12-29T11:22:24;10.30;99.90
31765;DHT22;18338;53.240;8.798;2022-12-29T11:24:53;10.30;99.90
31765;DHT22;18338;53.240;8.798;2022-12-29T11:27:25;10.30;99.90
31765;DHT22;18338;53.240;8.798;2022-12-29T11:29:53;10.20;99.90
31765;DHT22;18338;53.240;8.798;2022-12-29T11:32:26;10.30;99.90
31765;DHT22;18338;53.240;8.798;2022-12-29T11:34:56;10.30;99.90
31765;DHT22;18338;53.240;8.798;2022-12-29T11:37:36;10.30;99.90
31765;DHT22;18338;53.240;8.798;2022-12-29T11:40:18;10.40;99.90
31765;DHT22;18338;53.240;8.798;2022-12-29T11:42:54;10.40;99.90
31765;DHT22;18338;53.240;8.798;2022-12-29T11:45:27;10.50;99.90
31765;DHT22;18338;53.240;8.798;2022-12-29T11:48:01;10.60;99.90
31765;DHT22;18338;53.240;8.798;2022-12-29T11:50:34;10.70;99.90
31765;DHT22;18338;53.240;8.798;2022-12-29T11:53:15;10.80;99.90
31765;DHT22;18338;53.240;8.798;2022-12-29T11:56:08;10.90;99.90
31765;DHT22;18338;53.240;8.798;2022-12-29T11:58:37;11.00;99.90
31765;DHT22;18338;53.240;8.798;2022-12-29T12:03:38;11.10;99.90
31765;DHT22;18338;53.240;8.798;2022-12-29T12:06:12;11.20;99.90
31765;DHT22;18338;53.240;8.798;2022-12-29T12:09:10;11.20;99.90
31765;DHT22;18338;53.240;8.798;2022-12-29T12:11:42;11.30;99.90
31765;DHT22;18338;53.240;8.798;2022-12-29T12:14:30;11.30;99.90
31765;DHT22;18338;53.240;8.798;2022-12-29T12:17:10;11.30;99.90
31765;DHT22;18338;53.240;8.798;2022-12-29T12:19:43;11.20;99.90
31765;DHT22;18338;53.240;8.798;2022-12-29T12:22:36;11.10;99.90
31765;DHT22;18338;53.240;8.798;2022-12-29T12:25:29;10.90;99.90
31765;DHT22;18338;53.240;8.798;2022-12-29T12:28:20;10.70;99.90
31765;DHT22;18338;53.240;8.798;2022-12-29T12:30:52;10.70;99.90
31765;DHT22;18338;53.240;8.798;2022-12-29T12:33:26;10.60;99.90
31765;DHT22;18338;53.240;8.798;2022-12-29T12:36:20;10.50;99.90
31765;DHT22;18338;53.240;8.798;2022-12-29T12:42:06;10.20;99.90
31765;DHT22;18338;53.240;8.798;2022-12-29T12:47:41;10.30;99.90
31765;DHT22;18338;53.240;8.798;2022-12-29T12:50:19;10.30;99.90
31765;DHT22;18338;53.240;8.798;2022-12-29T12:55:57;10.30;99.90
31765;DHT22;18338;53.240;8.798;2022-12-29T13:06:53;10.40;99.90
31765;DHT22;18338;53.240;8.798;2022-12-29T13:14:51;10.70;99.90
31765;DHT22;18338;53.240;8.798;2022-12-29T13:25:35;10.80;99.90
31765;DHT22;18338;53.240;8.798;2022-12-29T13:28:18;10.80;99.90
31765;DHT22;18338;53.240;8.798;2022-12-29T13:31:12;10.70;99.90
31765;DHT22;18338;53.240;8.798;2022-12-29T13:34:14;10.70;99.90
31765;DHT22;18338;53.240;8.798;2022-12-29T13:36:48;10.60;99.90
31765;DHT22;18338;53.240;8.798;2022-12-29T13:39:40;10.60;99.90
31765;DHT22;18338;53.240;8.798;2022-12-29T13:42:09;10.60;99.90
31765;DHT22;18338;53.240;8.798;2022-12-29T13:44:51;10.60;99.90
31765;DHT22;18338;53.240;8.798;2022-12-29T13:49:56;10.70;99.90
31765;DHT22;18338;53.240;8.798;2022-12-29T13:55:45;10.80;99.90
31765;DHT22;18338;53.240;8.798;2022-12-29T14:03:55;10.80;99.90
31765;DHT22;18338;53.240;8.798;2022-12-29T14:06:31;10.70;99.90
31765;DHT22;18338;53.240;8.798;2022-12-29T14:08:59;10.70;99.90
31765;DHT22;18338;53.240;8.798;2022-12-29T14:11:35;10.70;99.90
31765;DHT22;18338;53.240;8.798;2022-12-29T14:14:21;10.70;99.90
31765;DHT22;18338;53.240;8.798;2022-12-29T14:16:48;10.60;99.90
31765;DHT22;18338;53.240;8.798;2022-12-29T14:19:21;10.40;99.90
31765;DHT22;18338;53.240;8.798;2022-12-29T14:21:56;10.30;99.90
31765;DHT22;18338;53.240;8.798;2022-12-29T14:34:59;10.00;99.90
31765;DHT22;18338;53.240;8.798;2022-12-29T14:37:29;10.10;99.90
31765;DHT22;18338;53.240;8.798;2022-12-29T14:40:19;10.10;99.90
31765;DHT22;18338;53.240;8.798;2022-12-29T14:42:51;10.10;99.90
31765;DHT22;18338;53.240;8.798;2022-12-29T14:47:47;10.10;99.90
31765;DHT22;18338;53.240;8.798;2022-12-29T14:50:23;10.10;99.90
31765;DHT22;18338;53.240;8.798;2022-12-29T14:52:52;10.10;99.90
31765;DHT22;18338;53.240;8.798;2022-12-29T14:55:30;10.10;99.90
31765;DHT22;18338;53.240;8.798;2022-12-29T14:58:01;10.00;99.90
31765;DHT22;18338;53.240;8.798;2022-12-29T15:00:31;9.90;99.90
31765;DHT22;18338;53.240;8.798;2022-12-29T15:03:04;9.80;99.90
31765;DHT22;18338;53.240;8.798;2022-12-29T15:08:45;9.60;99.90
31765;DHT22;18338;53.240;8.798;2022-12-29T15:11:31;9.60;99.90
31765;DHT22;18338;53.240;8.798;2022-12-29T15:14:27;9.60;99.90
31765;DHT22;18338;53.240;8.798;2022-12-29T15:16:56;9.60;99.90
31765;DHT22;18338;53.240;8.798;2022-12-29T15:19:24;9.60;99.90
31765;DHT22;18338;53.240;8.798;2022-12-29T15:21:55;9.50;99.90
31765;DHT22;18338;53.240;8.798;2022-12-29T15:24:23;9.50;99.90
31765;DHT22;18338;53.240;8.798;2022-12-29T15:26:51;9.50;99.90
31765;DHT22;18338;53.240;8.798;2022-12-29T15:29:35;9.70;99.90
31765;DHT22;18338;53.240;8.798;2022-12-29T15:34:44;9.80;99.90
31765;DHT22;18338;53.240;8.798;2022-12-29T15:37:18;9.90;99.90
31765;DHT22;18338;53.240;8.798;2022-12-29T15:39:45;9.90;99.90
31765;DHT22;18338;53.240;8.798;2022-12-29T15:44:48;9.70;99.90
31765;DHT22;18338;53.240;8.798;2022-12-29T15:47:30;9.60;99.90
31765;DHT22;18338;53.240;8.798;2022-12-29T15:52:27;9.50;99.90
31765;DHT22;18338;53.240;8.798;2022-12-29T15:54:58;9.40;99.90
31765;DHT22;18338;53.240;8.798;2022-12-29T15:57:37;9.30;99.90
31765;DHT22;18338;53.240;8.798;2022-12-29T16:00:46;9.20;99.90
31765;DHT22;18338;53.240;8.798;2022-12-29T16:03:15;9.20;99.90
31765;DHT22;18338;53.240;8.798;2022-12-29T16:05:53;9.10;99.90
31765;DHT22;18338;53.240;8.798;2022-12-29T16:10:52;9.10;99.90
31765;DHT22;18338;53.240;8.798;2022-12-29T16:13:29;9.10;99.90
31765;DHT22;18338;53.240;8.798;2022-12-29T16:16:19;9.10;99.90
31765;DHT22;18338;53.240;8.798;2022-12-29T16:18:47;9.10;99.90
31765;DHT22;18338;53.240;8.798;2022-12-29T16:21:29;9.10;99.90
31765;DHT22;18338;53.240;8.798;2022-12-29T16:24:14;9.10;99.90
31765;DHT22;18338;53.240;8.798;2022-12-29T16:26:47;9.20;99.90
31765;DHT22;18338;53.240;8.798;2022-12-29T16:29:14;9.10;99.90
31765;DHT22;18338;53.240;8.798;2022-12-29T16:31:53;9.10;99.90
31765;DHT22;18338;53.240;8.798;2022-12-29T16:34:32;9.10;99.90
31765;DHT22;18338;53.240;8.798;2022-12-29T16:37:01;8.90;99.90
31765;DHT22;18338;53.240;8.798;2022-12-29T16:39:36;8.90;99.90
31765;DHT22;18338;53.240;8.798;2022-12-29T16:47:48;8.90;99.90
31765;DHT22;18338;53.240;8.798;2022-12-29T16:50:27;8.90;99.90
31765;DHT22;18338;53.240;8.798;2022-12-29T16:52:54;8.90;99.90
31765;DHT22;18338;53.240;8.798;2022-12-29T16:55:24;8.90;99.90
31765;DHT22;18338;53.240;8.798;2022-12-29T16:57:53;9.00;99.90
31765;DHT22;18338;53.240;8.798;2022-12-29T17:00:34;9.00;99.90
31765;DHT22;18338;53.240;8.798;2022-12-29T17:03:01;9.00;99.90
31765;DHT22;18338;53.240;8.798;2022-12-29T17:05:29;9.10;99.90
31765;DHT22;18338;53.240;8.798;2022-12-29T17:07:56;9.20;99.90
31765;DHT22;18338;53.240;8.798;2022-12-29T17:10:27;9.20;99.90
31765;DHT22;18338;53.240;8.798;2022-12-29T17:13:14;9.30;99.90
31765;DHT22;18338;53.240;8.798;2022-12-29T17:15:41;9.30;99.90
31765;DHT22;18338;53.240;8.798;2022-12-29T17:18:08;9.30;99.90
31765;DHT22;18338;53.240;8.798;2022-12-29T17:20:39;9.30;99.90
31765;DHT22;18338;53.240;8.798;2022-12-29T17:23:13;9.20;99.90
31765;DHT22;18338;53.240;8.798;2022-12-29T17:25:48;9.20;99.90
31765;DHT22;18338;53.240;8.798;2022-12-29T17:28:23;9.10;99.90
31765;DHT22;18338;53.240;8.798;2022-12-29T17:30:52;9.10;99.90
31765;DHT22;18338;53.240;8.798;2022-12-29T17:33:20;9.10;99.90
31765;DHT22;18338;53.240;8.798;2022-12-29T17:35:47;9.10;99.90
31765;DHT22;18338;53.240;8.798;2022-12-29T17:38:25;9.10;99.90
31765;DHT22;18338;53.240;8.798;2022-12-29T17:40:53;9.10;99.90
31765;DHT22;18338;53.240;8.798;2022-12-29T17:43:20;9.00;99.90
31765;DHT22;18338;53.240;8.798;2022-12-29T17:45:52;8.90;99.90
31765;DHT22;18338;53.240;8.798;2022-12-29T17:48:20;8.90;99.90
31765;DHT22;18338;53.240;8.798;2022-12-29T17:50:48;8.90;99.90
31765;DHT22;18338;53.240;8.798;2022-12-29T17:53:20;9.00;99.90
31765;DHT22;18338;53.240;8.798;2022-12-29T17:55:47;9.00;99.90
31765;DHT22;18338;53.240;8.798;2022-12-29T17:58:22;9.10;99.90